Ethel, Missouri
Current Conditions -  °F | °C
As of 1:55 PM on Friday 19 Dec 2014 (Local Time) from KIRK Reporting Station
Haze Haze  
Wind Chill: 26°   Ceiling: 1100
Heat Index: 32°   Visibility: 4mi
Dew Point: 29°   Wind: 7mph
Humidity: 88%   Direction: 150°SSE
Pressure: 30.26"   Gusts: NA
Location:  39.89°N, 92.74°W
Report Text: KIRK 191955Z AUTO 15006KT 4SM BR BKN011 OVC024 00/M02 A3026 RMK AO2 SLP260 T00001017
Loading
Personal Weather Stations






























Interactive Weather Map New forecast layout! Learn more

10-Day Weather Forecast

Advertisements
Track Severe Weather on mobile